Flight Track Log - Related Links

Times and Time Zones

All times are in EDT time to prevent confusion due to time zone crossing. See the DAL1084 flight status page for this flight to view local times or setup timezone preferences in your user account.

Time Position Orientation Groundspeed Altitude Reporting Facility
EDT Latitude Longitude Course Direction KTS MPH feet Rate Location/Type
Thu 10:00:00 AM 61.1718 -149.2021 109° East  Level Estimated
Thu 10:00:00 AM 61.3000 -150.0167 139° Southeast 230 265 6,700  Level Anchorage Center
Thu 10:01:00 AM 61.1700 -148.9368 101° East  Level Estimated
Thu 10:01:00 AM 61.3000 -149.8833 90° East 250 288 9,100  Level Anchorage Center
Thu 10:02:00 AM 61.1677 -148.6715 99° East  Level Estimated
Thu 10:02:00 AM 61.3000 -149.7333 90° East 270 311 10,700  Level Anchorage Center
Thu 10:03:00 AM 61.0661 -148.5104 142° Southeast  Level FlightAware Approximate
Thu 10:03:01 AM 61.3000 -149.5333 90° East 330 380 11,900  Level Anchorage Center
Thu 10:04:00 AM 61.0633 -148.2460 101° East  Level Estimated
Thu 10:04:00 AM 61.3000 -149.3333 90° East 360 414 13,600  Level Anchorage Center
Thu 10:05:00 AM 60.9661 -148.0743 139° Southeast  Level FlightAware Approximate
Thu 10:05:00 AM 61.3167 -149.1167 81° East 360 414 15,600  Level Anchorage Center
Thu 10:06:01 AM 61.3167 -148.9000 90° East 370 426 17,500 1,934 Climbing Anchorage Center
Thu 10:07:01 AM 61.3167 -148.6833 90° East 390 449 19,500 1,750 Climbing Anchorage Center
Thu 10:08:01 AM 61.3167 -148.4500 90° East 400 460 21,000 1,500 Climbing Anchorage Center
Thu 10:09:01 AM 61.3000 -148.2167 98° East 400 460 22,500 1,200 Climbing Anchorage Center
Thu 10:10:01 AM 61.2833 -147.9667 98° East 420 483 23,400 1,140 Climbing Anchorage Center
Thu 10:11:02 AM 61.2500 -147.7167 105° East 440 506 24,800 1,200 Climbing Anchorage Center
Thu 10:12:01 AM 61.2333 -147.4500 97° East 470 541 25,800 1,059 Climbing Anchorage Center
Thu 10:13:01 AM 61.2000 -147.2000 105° East 460 529 26,900 992 Climbing Anchorage Center
Thu 10:14:02 AM 61.1833 -146.9333 97° East 470 541 27,800 1,041 Climbing Anchorage Center
Thu 10:15:02 AM 61.1500 -146.6500 104° East 490 564 29,000 1,300 Climbing Anchorage Center
Thu 10:16:02 AM 61.1167 -146.3833 104° East 480 552 30,400 1,350 Climbing Anchorage Center
Thu 10:17:02 AM 61.0833 -146.1167 104° East 480 552 31,700 1,250 Climbing Anchorage Center
Thu 10:18:02 AM 61.0667 -145.8333 97° East 480 552 32,900 1,150 Climbing Anchorage Center
Thu 10:19:02 AM 61.0333 -145.5667 104° East 480 552 34,000 1,050 Climbing Anchorage Center
Thu 10:20:02 AM 61.0000 -145.3000 104° East 470 541 35,000 496 Climbing Anchorage Center
Thu 10:21:03 AM 60.9667 -145.0500 105° East 460 529 35,000  Level Anchorage Center
Thu 10:22:03 AM 60.9333 -144.7667 103° East 480 552 35,000  Level Anchorage Center
Thu 10:23:03 AM 60.9000 -144.5000 104° East 480 552 35,000  Level Anchorage Center
Thu 10:24:03 AM 60.8667 -144.2500 105° East 470 541 35,000  Level Anchorage Center
Thu 10:25:03 AM 60.8333 -143.9833 104° East 470 541 35,000  Level Anchorage Center
Thu 10:26:03 AM 60.8000 -143.7167 104° East 480 552 35,000  Level Anchorage Center
Thu 10:27:03 AM 60.7667 -143.4500 104° East 470 541 35,000  Level Anchorage Center
Thu 10:28:03 AM 60.7333 -143.1833 104° East 470 541 35,000  Level Anchorage Center
Thu 10:29:03 AM 60.7000 -142.9167 104° East 470 541 35,000  Level Anchorage Center
Thu 10:30:03 AM 60.6667 -142.6833 106° East 480 552 35,000  Level Anchorage Center
Thu 10:31:03 AM 60.6333 -142.4167 104° East 470 541 35,000  Level Anchorage Center
Thu 10:32:04 AM 60.6000 -142.1667 105° East 470 541 35,000  Level Anchorage Center
Thu 10:33:04 AM 60.5667 -141.9000 104° East 470 541 35,000  Level Anchorage Center
Thu 10:34:04 AM 60.5167 -141.6333 111° Southeast 480 552 35,000  Level Anchorage Center
Thu 10:35:04 AM 60.4833 -141.3833 105° East 470 541 35,000  Level Anchorage Center
Thu 10:36:04 AM 60.4500 -141.1333 105° East 470 541 35,000  Level Anchorage Center
Thu 10:37:04 AM 60.4000 -140.8667 111° Southeast 470 541 35,000  Level Anchorage Center
Thu 10:38:05 AM 60.3667 -140.6167 105° East 470 541 35,000  Level Anchorage Center
Thu 10:39:04 AM 60.3333 -140.3667 105° East 470 541 35,000  Level Anchorage Center
Thu 10:40:04 AM 60.2833 -140.1167 112° Southeast 470 541 35,000  Level Anchorage Center
Thu 10:41:05 AM 60.2500 -139.8667 105° East 460 529 35,000  Level Anchorage Center
Thu 10:42:05 AM 60.2000 -139.6167 112° Southeast 460 529 35,000  Level Anchorage Center
Thu 10:43:05 AM 60.1667 -139.3667 105° East 470 541 35,000  Level Anchorage Center
Thu 10:44:05 AM 60.1167 -139.1167 112° Southeast 460 529 35,000  Level Anchorage Center
Thu 10:45:05 AM 60.0833 -138.8667 105° East 470 541 35,000  Level Anchorage Center
Thu 10:46:05 AM 60.0500 -138.6000 104° East 470 541 35,000  Level Anchorage Center
Thu 10:47:05 AM 60.0333 -138.3500 97° East 460 529 35,000  Level Anchorage Center
Thu 10:48:05 AM 60.0000 -138.1000 105° East 460 529 35,000  Level Anchorage Center
Thu 10:49:05 AM 59.9667 -137.8500 105° East 460 529 35,000  Level Anchorage Center
Thu 10:50:06 AM 59.9333 -137.6000 105° East 460 529 35,000  Level Anchorage Center
Thu 10:51:06 AM 59.9167 -137.3500 97° East 460 529 35,000  Level Anchorage Center
Thu 10:52:06 AM 59.8833 -137.1000 105° East 460 529 35,000  Level Anchorage Center
Thu 10:53:06 AM 59.8500 -136.8500 105° East 460 529 35,000  Level Anchorage Center
Thu 10:54:06 AM 59.8167 -136.6000 105° East 470 541 35,000  Level Anchorage Center
Thu 10:55:06 AM 59.7833 -136.3500 105° East 470 541 35,000  Level Anchorage Center
Thu 10:57:00 AM 59.7204 -135.8812 105° East  Level FlightAware Approximate
Thu 11:04:00 AM 59.4744 -134.1696 105° East  Level FlightAware Approximate
Thu 11:05:00 AM 59.4374 -133.9271 107° East  Level FlightAware Approximate
Thu 11:06:00 AM 59.4000 -133.6852 107° East  Level FlightAware Approximate
Thu 11:07:00 AM 59.3621 -133.4438 107° East  Level FlightAware Approximate
Thu 11:08:00 AM 59.3238 -133.2030 107° East  Level FlightAware Approximate
Thu 11:09:00 AM 59.2851 -132.9627 107° East  Level FlightAware Approximate
Thu 11:10:00 AM 59.2459 -132.7230 108° East  Level FlightAware Approximate
Thu 11:11:00 AM 59.2063 -132.4838 108° East  Level FlightAware Approximate
Thu 11:12:00 AM 59.1662 -132.2452 108° East  Level FlightAware Approximate
Thu 11:13:00 AM 59.1257 -132.0071 108° East  Level FlightAware Approximate
Thu 11:14:00 AM 59.0848 -131.7696 108° East  Level FlightAware Approximate
Thu 11:15:00 AM 59.0434 -131.5327 109° East  Level FlightAware Approximate
Thu 11:16:00 AM 59.0016 -131.2963 109° East  Level FlightAware Approximate
Thu 11:17:00 AM 58.9594 -131.0605 109° East  Level FlightAware Approximate
Thu 11:18:00 AM 58.9167 -130.8253 109° East  Level FlightAware Approximate
Thu 11:19:00 AM 58.8737 -130.5907 109° East  Level FlightAware Approximate
Thu 11:20:00 AM 58.8302 -130.3567 110° East  Level FlightAware Approximate
Thu 11:21:00 AM 58.7862 -130.1232 110° East  Level FlightAware Approximate
Thu 11:22:00 AM 58.7419 -129.8904 110° East  Level FlightAware Approximate
Thu 11:23:00 AM 58.6971 -129.6582 110° East  Level FlightAware Approximate
Thu 11:24:00 AM 58.6519 -129.4265 110° East  Level FlightAware Approximate
Thu 11:25:00 AM 58.6063 -129.1954 111° Southeast  Level FlightAware Approximate
Thu 11:26:00 AM 58.5603 -128.9650 111° Southeast  Level FlightAware Approximate
Thu 11:27:00 AM 58.5139 -128.7352 111° Southeast  Level FlightAware Approximate
Thu 11:28:00 AM 58.4671 -128.5059 111° Southeast  Level FlightAware Approximate
Thu 11:29:00 AM 58.4198 -128.2773 111° Southeast  Level FlightAware Approximate
Thu 11:30:00 AM 58.3722 -128.0493 112° Southeast  Level FlightAware Approximate
Thu 11:31:00 AM 58.3241 -127.8219 112° Southeast  Level FlightAware Approximate
Thu 11:32:00 AM 58.2757 -127.5952 112° Southeast  Level FlightAware Approximate
Thu 11:33:00 AM 58.2268 -127.3690 112° Southeast  Level FlightAware Approximate
Thu 11:34:00 AM 58.1776 -127.1435 112° Southeast  Level FlightAware Approximate
Thu 11:35:00 AM 58.1279 -126.9186 113° Southeast  Level FlightAware Approximate
Thu 11:36:00 AM 58.0779 -126.6943 113° Southeast  Level FlightAware Approximate
Thu 11:37:00 AM 58.0274 -126.4707 113° Southeast  Level FlightAware Approximate
Thu 11:38:00 AM 57.9767 -126.2476 113° Southeast  Level FlightAware Approximate
Thu 11:39:00 AM 57.9258 -126.0250 113° Southeast  Level FlightAware Approximate
Thu 11:40:00 AM 57.8745 -125.8030 113° Southeast  Level FlightAware Approximate
Thu 11:41:00 AM 57.8228 -125.5816 114° Southeast  Level FlightAware Approximate
Thu 11:42:00 AM 57.7707 -125.3609 114° Southeast  Level FlightAware Approximate
Thu 11:43:00 AM 57.7183 -125.1409 114° Southeast  Level FlightAware Approximate
Thu 11:43:39 AM 57.6833 -125.1000 115° Southeast 460 529 35,000  Level Edmonton Center
Thu 11:44:00 AM 57.6655 -124.9214 114° Southeast  Level FlightAware Approximate
Thu 11:44:39 AM 57.6333 -124.8833 113° Southeast 460 529 35,000  Level Edmonton Center
Thu 11:45:00 AM 57.6122 -124.7026 114° Southeast  Level FlightAware Approximate
Thu 11:45:39 AM 57.5833 -124.6500 112° Southeast 460 529 35,000  Level Edmonton Center
Thu 11:46:00 AM 57.5586 -124.4845 115° Southeast  Level FlightAware Approximate
Thu 11:46:39 AM 57.5333 -124.4500 115° Southeast 460 529 35,000  Level Edmonton Center
Thu 11:47:00 AM 57.5047 -124.2670 115° Southeast  Level FlightAware Approximate
Thu 11:47:39 AM 57.4667 -124.2333 120° Southeast 460 529 35,000  Level Edmonton Center
Thu 11:48:00 AM 57.4503 -124.0501 115° Southeast  Level FlightAware Approximate
Thu 11:48:39 AM 57.4167 -124.0333 115° Southeast 460 529 35,000  Level Edmonton Center
Thu 11:49:39 AM 57.3667 -123.8167 113° Southeast 460 529 35,000  Level Edmonton Center
Thu 11:50:39 AM 57.3167 -123.5833 112° Southeast 450 518 35,000  Level Edmonton Center
Thu 11:51:39 AM 57.2500 -123.4000 124° Southeast 450 518 35,000  Level Edmonton Center
Thu 11:52:39 AM 57.2000 -123.1833 113° Southeast 450 518 35,000  Level Edmonton Center
Thu 11:53:39 AM 57.1333 -122.9833 121° Southeast 450 518 35,000  Level Edmonton Center
Thu 11:54:39 AM 57.0833 -122.7333 110° East 460 529 35,000  Level Edmonton Center
Thu 11:55:39 AM 57.0333 -122.5500 117° Southeast 460 529 35,000  Level Edmonton Center
Thu 11:56:39 AM 56.9833 -122.3333 113° Southeast 460 529 35,000  Level Edmonton Center
Thu 11:57:39 AM 56.9167 -122.1000 118° Southeast 460 529 35,000  Level Edmonton Center
Thu 11:58:39 AM 56.8667 -121.9167 116° Southeast 460 529 35,000  Level Edmonton Center
Thu 11:59:39 AM 56.8000 -121.7000 119° Southeast 460 529 35,000  Level Edmonton Center
Thu 12:00:39 PM 56.7500 -121.4833 113° Southeast 460 529 35,000 300 Level Edmonton Center
Thu 12:01:39 PM 56.6667 -121.2667 125° Southeast 460 529 35,600 750 Climbing Edmonton Center
Thu 12:02:39 PM 56.6333 -121.0833 108° East 460 529 36,500 700 Climbing Edmonton Center
Thu 12:03:39 PM 56.5500 -120.8667 125° Southeast 460 529 37,000 250 Climbing Edmonton Center
Thu 12:04:39 PM 56.5000 -120.6500 113° Southeast 460 529 37,000  Level Edmonton Center
Thu 12:05:39 PM 56.4333 -120.4333 119° Southeast 460 529 37,000  Level Edmonton Center
Thu 12:06:39 PM 56.3667 -120.2500 123° Southeast 460 529 37,000  Level Edmonton Center
Thu 12:07:39 PM 56.3167 -120.0333 113° Southeast 460 529 37,000  Level Edmonton Center
Thu 12:08:39 PM 56.2500 -119.8333 121° Southeast 460 529 37,000  Level Edmonton Center
Thu 12:09:39 PM 56.2000 -119.6167 112° Southeast 460 529 37,000  Level Edmonton Center
Thu 12:10:39 PM 56.1333 -119.4000 119° Southeast 460 529 37,000  Level Edmonton Center
Thu 12:11:39 PM 56.0667 -119.2333 126° Southeast 460 529 37,000  Level Edmonton Center
Thu 12:12:39 PM 56.0000 -119.0167 119° Southeast 460 529 37,000  Level Edmonton Center
Thu 12:13:39 PM 55.9500 -118.8167 114° Southeast 460 529 37,000  Level Edmonton Center
Thu 12:14:39 PM 55.8833 -118.6333 123° Southeast 460 529 37,000  Level Edmonton Center
Thu 12:15:39 PM 55.8167 -118.4333 121° Southeast 460 529 37,000  Level Edmonton Center
Thu 12:16:39 PM 55.7500 -118.2167 119° Southeast 460 529 37,000  Level Edmonton Center
Thu 12:17:39 PM 55.6667 -118.0167 126° Southeast 460 529 37,000  Level Edmonton Center
Thu 12:18:39 PM 55.6167 -117.8000 112° Southeast 460 529 37,000  Level Edmonton Center
Thu 12:19:39 PM 55.5500 -117.6000 120° Southeast 460 529 37,000  Level Edmonton Center
Thu 12:20:39 PM 55.4833 -117.4333 125° Southeast 470 541 37,000  Level Edmonton Center
Thu 12:21:39 PM 55.4167 -117.2167 118° Southeast 470 541 37,000  Level Edmonton Center
Thu 12:22:39 PM 55.3500 -117.0167 120° Southeast 470 541 37,000  Level Edmonton Center
Thu 12:23:39 PM 55.2833 -116.8167 120° Southeast 470 541 37,000  Level Edmonton Center
Thu 12:24:39 PM 55.2000 -116.6167 126° Southeast 470 541 37,000  Level Edmonton Center
Thu 12:25:39 PM 55.1333 -116.4167 120° Southeast 480 552 37,000  Level Edmonton Center
Thu 12:26:39 PM 55.0667 -116.2167 120° Southeast 480 552 37,000  Level Edmonton Center
Thu 12:27:39 PM 55.0000 -116.0167 120° Southeast 480 552 37,000  Level Edmonton Center
Thu 12:28:39 PM 54.9167 -115.8167 126° Southeast 480 552 37,000  Level Edmonton Center
Thu 12:29:39 PM 54.8500 -115.6167 120° Southeast 480 552 37,000  Level Edmonton Center
Thu 12:30:39 PM 54.7833 -115.4167 120° Southeast 480 552 37,000  Level Edmonton Center
Thu 12:31:39 PM 54.7167 -115.2167 120° Southeast 480 552 37,000  Level Edmonton Center
Thu 12:32:39 PM 54.6500 -115.0333 122° Southeast 470 541 37,000  Level Edmonton Center
Thu 12:33:39 PM 54.5667 -114.8333 126° Southeast 480 552 37,000  Level Edmonton Center
Thu 12:34:39 PM 54.4833 -114.6333 126° Southeast 480 552 37,000  Level Edmonton Center
Thu 12:35:39 PM 54.4167 -114.4500 122° Southeast 480 552 37,000  Level Edmonton Center
Thu 12:36:39 PM 54.3500 -114.2500 120° Southeast 480 552 37,000  Level Edmonton Center
Thu 12:37:39 PM 54.2833 -114.0667 122° Southeast 480 552 37,000  Level Edmonton Center
Thu 12:38:39 PM 54.2000 -113.8667 125° Southeast 480 552 37,000  Level Edmonton Center
Thu 12:39:39 PM 54.1167 -113.6667 125° Southeast 490 564 37,000  Level Edmonton Center
Thu 12:40:39 PM 54.0333 -113.4500 123° Southeast 490 564 37,000  Level Edmonton Center
Thu 12:41:39 PM 53.9667 -113.2667 122° Southeast 490 564 37,000  Level Edmonton Center
Thu 12:42:39 PM 53.9000 -113.1000 124° Southeast 490 564 37,000  Level Edmonton Center
Thu 12:43:39 PM 53.8167 -112.8833 123° Southeast 480 552 37,000  Level Edmonton Center
Thu 12:44:39 PM 53.7500 -112.7000 122° Southeast 480 552 37,000  Level Edmonton Center
Thu 12:45:39 PM 53.6667 -112.5167 127° Southeast 480 552 37,000  Level Edmonton Center
Thu 12:46:39 PM 53.5833 -112.3333 127° Southeast 480 552 37,000  Level Edmonton Center
Thu 12:47:39 PM 53.5167 -112.1500 121° Southeast 480 552 37,000  Level Edmonton Center
Thu 12:48:39 PM 53.4167 -111.9500 130° Southeast 480 552 37,000  Level Edmonton Center
Thu 12:49:39 PM 53.3500 -111.7667 121° Southeast 480 552 37,000  Level Edmonton Center
Thu 12:50:39 PM 53.2833 -111.5833 121° Southeast 470 541 37,000  Level Edmonton Center
Thu 12:51:39 PM 53.2000 -111.4000 127° Southeast 470 541 37,000  Level Edmonton Center
Thu 12:52:39 PM 53.1333 -111.2333 124° Southeast 470 541 37,000  Level Edmonton Center
Thu 12:53:39 PM 53.0500 -111.0500 127° Southeast 470 541 37,000  Level Edmonton Center
Thu 12:54:39 PM 52.9833 -110.9000 126° Southeast 470 541 37,000 300 Level Edmonton Center
Thu 12:55:39 PM 52.9000 -110.6833 122° Southeast 470 541 37,600 450 Climbing Edmonton Center
Thu 12:56:39 PM 52.8333 -110.5000 121° Southeast 470 541 37,900 550 Climbing Edmonton Center
Thu 12:57:39 PM 52.7667 -110.3000 119° Southeast 480 552 38,700 550 Climbing Edmonton Center
Thu 12:58:39 PM 52.7000 -110.1000 119° Southeast 480 552 39,000 196 Climbing Edmonton Center
Thu 12:59:11 PM 52.6667 -110.0500 138° Southeast 490 564 39,000  Level Winnipeg Center
Thu 01:00:11 PM 52.6000 -109.8333 117° Southeast 490 564 39,000  Level Winnipeg Center
Thu 01:01:11 PM 52.5333 -109.6500 121° Southeast 500 575 39,000  Level Winnipeg Center
Thu 01:02:11 PM 52.4500 -109.4333 122° Southeast 510 587 39,000  Level Winnipeg Center
Thu 01:03:11 PM 52.3833 -109.2333 119° Southeast 500 575 39,000  Level Winnipeg Center
Thu 01:04:11 PM 52.3000 -109.0500 127° Southeast 500 575 39,000  Level Winnipeg Center
Thu 01:05:11 PM 52.2500 -108.8667 114° Southeast 500 575 39,000  Level Winnipeg Center
Thu 01:06:11 PM 52.1833 -108.6833 121° Southeast 500 575 39,000  Level Winnipeg Center
Thu 01:07:11 PM 52.1000 -108.4667 122° Southeast 500 575 39,000  Level Winnipeg Center
Thu 01:08:11 PM 52.0333 -108.2833 121° Southeast 500 575 39,000  Level Winnipeg Center
Thu 01:09:11 PM 51.9500 -108.0833 124° Southeast 500 575 39,000  Level Winnipeg Center
Thu 01:10:11 PM 51.8833 -107.9000 120° Southeast 500 575 39,000  Level Winnipeg Center
Thu 01:11:11 PM 51.8000 -107.7167 126° Southeast 500 575 39,000  Level Winnipeg Center
Thu 01:12:11 PM 51.7333 -107.5333 120° Southeast 490 564 39,000  Level Winnipeg Center
Thu 01:13:11 PM 51.6667 -107.3500 120° Southeast 490 564 39,000  Level Winnipeg Center
Thu 01:14:11 PM 51.5833 -107.1500 124° Southeast 490 564 39,000  Level Winnipeg Center
Thu 01:15:11 PM 51.5167 -106.9667 120° Southeast 490 564 39,000  Level Winnipeg Center
Thu 01:16:11 PM 51.4167 -106.7833 131° Southeast 500 575 39,000  Level Winnipeg Center
Thu 01:17:11 PM 51.3500 -106.6000 120° Southeast 490 564 39,000  Level Winnipeg Center
Thu 01:18:11 PM 51.2833 -106.4000 118° Southeast 490 564 39,000  Level Winnipeg Center
Thu 01:19:11 PM 51.2000 -106.2167 126° Southeast 500 575 39,000  Level Winnipeg Center
Thu 01:20:11 PM 51.1333 -106.0500 122° Southeast 490 564 39,000  Level Winnipeg Center
Thu 01:21:11 PM 51.0667 -105.8667 120° Southeast 500 575 39,000  Level Winnipeg Center
Thu 01:22:11 PM 50.9833 -105.6667 123° Southeast 500 575 39,000  Level Winnipeg Center
Thu 01:23:11 PM 50.9000 -105.5000 128° Southeast 490 564 39,000  Level Winnipeg Center
Thu 01:24:11 PM 50.8167 -105.3167 126° Southeast 490 564 39,000  Level Winnipeg Center
Thu 01:25:11 PM 50.7500 -105.1500 122° Southeast 490 564 39,000  Level Winnipeg Center
Thu 01:26:11 PM 50.6667 -104.9500 123° Southeast 490 564 39,000  Level Winnipeg Center
Thu 01:27:11 PM 50.6000 -104.7833 122° Southeast 490 564 39,000  Level Winnipeg Center
Thu 01:28:11 PM 50.5333 -104.6167 122° Southeast 490 564 39,000  Level Winnipeg Center
Thu 01:29:11 PM 50.4333 -104.4333 131° Southeast 500 575 39,000  Level Winnipeg Center
Thu 01:30:11 PM 50.3667 -104.2333 118° Southeast 500 575 39,000  Level Winnipeg Center
Thu 01:31:11 PM 50.3000 -104.0667 122° Southeast 500 575 39,000  Level Winnipeg Center
Thu 01:32:11 PM 50.2000 -103.8667 128° Southeast 500 575 39,000  Level Winnipeg Center
Thu 01:33:11 PM 50.1333 -103.7000 122° Southeast 500 575 39,000  Level Winnipeg Center
Thu 01:34:11 PM 50.0667 -103.5167 119° Southeast 500 575 39,000  Level Winnipeg Center
Thu 01:35:11 PM 49.9833 -103.3500 128° Southeast 500 575 39,000  Level Winnipeg Center
Thu 01:36:11 PM 49.9000 -103.1500 123° Southeast 500 575 39,000  Level Winnipeg Center
Thu 01:37:11 PM 49.8167 -102.9833 128° Southeast 500 575 39,000  Level Winnipeg Center
Thu 01:38:11 PM 49.7500 -102.8167 122° Southeast 500 575 39,000  Level Winnipeg Center
Thu 01:39:11 PM 49.6500 -102.6333 130° Southeast 500 575 39,000  Level Winnipeg Center
Thu 01:40:11 PM 49.5833 -102.4667 122° Southeast 500 575 39,000  Level Winnipeg Center
Thu 01:41:11 PM 49.5000 -102.2667 123° Southeast 500 575 39,000  Level Winnipeg Center
Thu 01:42:11 PM 49.4333 -102.1167 124° Southeast 490 564 39,000  Level Winnipeg Center
Thu 01:43:11 PM 49.3333 -101.9167 127° Southeast 490 564 39,000  Level Winnipeg Center
Thu 01:44:11 PM 49.2667 -101.7667 124° Southeast 490 564 39,000  Level Winnipeg Center
Thu 01:45:11 PM 49.1833 -101.6000 127° Southeast 490 564 39,000  Level Winnipeg Center
Thu 01:46:11 PM 49.1000 -101.4167 125° Southeast 500 575 39,000  Level Winnipeg Center
Thu 01:47:11 PM 49.0333 -101.2500 121° Southeast 500 575 39,000  Level Winnipeg Center
Thu 01:48:11 PM 48.9500 -101.0667 125° Southeast 510 587 39,000  Level Winnipeg Center
Thu 01:49:11 PM 48.8833 -100.8833 119° Southeast 500 575 39,000  Level Winnipeg Center
Thu 01:50:11 PM 48.8167 -100.7000 119° Southeast 500 575 39,000  Level Winnipeg Center
Thu 01:51:09 PM 48.7639 -100.5281 115° Southeast 502 578 39,000  Level Minneapolis Center
Thu 01:52:11 PM 48.6925 -100.3472 121° Southeast 501 577 39,000  Level Minneapolis Center
Thu 01:53:13 PM 48.6222 -100.1644 120° Southeast 503 579 39,000  Level Minneapolis Center
Thu 01:54:15 PM 48.5500 -99.9833 121° Southeast 504 580 39,000  Level Minneapolis Center
Thu 01:55:18 PM 48.4769 -99.7997 121° Southeast 509 586 39,000  Level Minneapolis Center
Thu 01:57:22 PM 48.3175 -99.4017 121° Southeast 506 582 39,000  Level Minneapolis Center
Thu 01:59:26 PM 48.1747 -99.0431 121° Southeast 503 579 39,000  Level Minneapolis Center
Thu 02:00:41 PM 48.0864 -98.8272 121° Southeast 506 582 39,000  Level Minneapolis Center
Thu 02:01:43 PM 47.9975 -98.6128 122° Southeast 508 585 39,000  Level Minneapolis Center
Thu 02:02:45 PM 47.9231 -98.4344 122° Southeast 507 583 39,000  Level Minneapolis Center
Thu 02:03:47 PM 47.8467 -98.2547 122° Southeast 510 587 39,000  Level Minneapolis Center
Thu 02:04:49 PM 47.7711 -98.0756 122° Southeast 510 587 39,000  Level Minneapolis Center
Thu 02:05:51 PM 47.7106 -97.9319 122° Southeast 510 587 39,000  Level Minneapolis Center
Thu 02:06:53 PM 47.6169 -97.7139 122° Southeast 508 585 39,000  Level Minneapolis Center
Thu 02:07:55 PM 47.5397 -97.5353 123° Southeast 508 585 39,000  Level Minneapolis Center
Thu 02:08:57 PM 47.4631 -97.3578 123° Southeast 509 586 39,000  Level Minneapolis Center
Thu 02:09:59 PM 47.3861 -97.1825 123° Southeast 508 585 39,000  Level Minneapolis Center
Thu 02:11:02 PM 47.2933 -96.9708 123° Southeast 512 589 39,000  Level Minneapolis Center
Thu 02:12:04 PM 47.2161 -96.7967 123° Southeast 511 588 39,000  Level Minneapolis Center
Thu 02:13:05 PM 47.1544 -96.6586 123° Southeast 508 585 39,000  Level Minneapolis Center
Thu 02:14:08 PM 47.0606 -96.4514 124° Southeast 508 585 39,000  Level Minneapolis Center
Thu 02:15:10 PM 46.9825 -96.2786 123° Southeast 509 586 39,000  Level Minneapolis Center
Thu 02:16:12 PM 46.8900 -96.0739 123° Southeast 505 581 39,000  Level Minneapolis Center
Thu 02:17:14 PM 46.8114 -95.9064 124° Southeast 503 579 39,000  Level Minneapolis Center
Thu 02:18:16 PM 46.7419 -95.7531 123° Southeast 503 579 39,000  Level Minneapolis Center
Thu 02:19:18 PM 46.6558 -95.5692 124° Southeast 502 578 39,000 -387 Level Minneapolis Center
Thu 02:20:20 PM 46.5697 -95.3869 124° Southeast 501 577 38,200 -1,548 Descending Minneapolis Center
Thu 02:21:22 PM 46.4922 -95.2194 124° Southeast 502 578 35,800 -2,400 Descending Minneapolis Center
Thu 02:22:25 PM 46.4133 -95.0539 125° Southeast 502 578 33,200 -2,277 Descending Minneapolis Center
Thu 02:23:39 PM 46.3331 -94.8878 125° Southeast 505 581 30,600 -2,294 Descending Minneapolis Center
Thu 02:24:41 PM 46.2403 -94.6922 124° Southeast 496 571 28,000 -2,371 Descending Minneapolis Center
Thu 02:25:43 PM 46.1561 -94.5169 125° Southeast 481 554 25,700 -2,129 Descending Minneapolis Center
Thu 02:26:45 PM 46.0817 -94.3650 125° Southeast 469 540 23,600 -2,177 Descending Minneapolis Center
Thu 02:27:47 PM 45.9953 -94.1875 125° Southeast 455 524 21,200 -2,129 Descending Minneapolis Center
Thu 02:28:49 PM 45.9261 -94.0458 125° Southeast 440 506 19,200 -1,920 Descending Minneapolis Center
Thu 02:29:52 PM 45.8564 -93.9089 126° Southeast 429 494 17,200 -1,920 Descending Minneapolis Center
Thu 02:30:54 PM 45.7908 -93.7742 125° Southeast 418 481 15,200 -1,790 Descending Minneapolis Center
Thu 02:31:56 PM 45.7153 -93.6781 138° Southeast 365 420 13,500 -1,694 Descending Minneapolis Center
Thu 02:32:58 PM 45.6264 -93.6308 160° South 342 394 11,700 -1,210 Descending Minneapolis Center
Thu 02:34:00 PM 45.5192 -93.5733 159° South 342 394 11,000 -484 Descending Minneapolis Center
Thu 02:35:02 PM 45.4286 -93.5358 164° South 338 389 10,700 -484 Descending Minneapolis Center
Thu 02:36:04 PM 45.3458 -93.5281 176° South 301 346 10,000 -1,016 Descending Minneapolis Center
Thu 02:37:06 PM 45.2678 -93.5164 174° South 285 328 8,600 -1,500 Descending Minneapolis Center
Thu 02:38:08 PM 45.1925 -93.5050 174° South 275 316 6,900 -1,742 Descending Minneapolis Center
Thu 02:39:10 PM 45.1222 -93.4839 168° South 263 303 5,000 -1,403 Descending Minneapolis Center
Thu 02:40:12 PM 45.0481 -93.4261 151° Southeast 252 290 4,000 -528 Descending Minneapolis Center
Thu 02:41:15 PM 44.9992 -93.3892 152° Southeast 202 232 3,900 -480 Descending Minneapolis Center
Thu 02:42:17 PM 44.9592 -93.3553 149° Southeast 173 199 3,000 -774 Descending Minneapolis Center
Thu 02:43:19 PM 44.9319 -93.3122 132° Southeast 150 173 2,300 -726 Descending Minneapolis Center
Thu 02:44:21 PM 44.9122 -93.2650 121° Southeast 141 162 1,500 -774 Descending Minneapolis Center

Login

Don't have an account? Register now (free) for customized features, flight alerts, and more!